createdAt,value
2023-05-06T00:04:33.745Z,58.61
2023-05-06T00:09:36.102Z,58.69
2023-05-06T00:14:38.465Z,58.63
2023-05-06T00:19:40.878Z,58.81
2023-05-06T00:24:43.169Z,60.02
2023-05-06T00:29:45.405Z,59.55
2023-05-06T00:34:48.169Z,59.43
2023-05-06T00:39:50.369Z,59.36
2023-05-06T00:44:53.068Z,59.13
2023-05-06T00:49:55.400Z,59.24
2023-05-06T00:54:57.947Z,59.09
2023-05-06T01:00:00.252Z,58.72
2023-05-06T01:05:03.785Z,58.40
2023-05-06T01:10:14.175Z,58.53
2023-05-06T01:15:22.559Z,58.77
2023-05-06T01:20:27.312Z,59.00
2023-05-06T01:25:30.691Z,59.09
2023-05-06T01:30:39.408Z,59.35
2023-05-06T01:35:55.302Z,59.39
2023-05-06T01:40:58.980Z,59.22
2023-05-06T01:46:02.002Z,59.47
2023-05-06T01:51:04.765Z,59.80
2023-05-06T01:56:07.721Z,59.75
2023-05-06T02:01:10.224Z,60.36
2023-05-06T02:06:12.701Z,60.12
2023-05-06T02:11:15.121Z,60.27
2023-05-06T02:16:17.396Z,60.31
2023-05-06T02:21:19.688Z,60.10
2023-05-06T02:26:21.914Z,60.25
2023-05-06T02:31:24.319Z,60.76
2023-05-06T02:36:27.005Z,61.00
2023-05-06T02:41:29.352Z,60.77
2023-05-06T02:46:31.639Z,61.00
2023-05-06T02:51:33.970Z,61.04
2023-05-06T02:56:36.354Z,61.17
2023-05-06T03:01:38.807Z,61.61
2023-05-06T03:06:41.033Z,61.31
2023-05-06T03:11:43.487Z,61.20
2023-05-06T03:16:45.764Z,61.48
2023-05-06T03:21:48.652Z,61.49
2023-05-06T03:26:51.209Z,61.54
2023-05-06T03:31:56.928Z,61.50
2023-05-06T03:36:59.282Z,61.87
2023-05-06T03:42:01.507Z,61.81
2023-05-06T03:47:03.719Z,61.54
2023-05-06T03:52:06.303Z,61.29
2023-05-06T03:57:08.514Z,61.68
2023-05-06T04:02:10.794Z,61.27
2023-05-06T04:07:13.105Z,61.32
2023-05-06T04:12:15.455Z,61.44
2023-05-06T04:17:17.783Z,61.53
2023-05-06T04:22:20.527Z,61.49
2023-05-06T04:27:22.939Z,61.62
2023-05-06T04:32:28.011Z,61.15
2023-05-06T04:37:31.221Z,61.09
2023-05-06T04:42:33.922Z,60.30
2023-05-06T04:47:36.345Z,60.28
2023-05-06T04:52:38.907Z,60.17
2023-05-06T04:57:41.166Z,59.94
2023-05-06T05:02:43.325Z,60.17
2023-05-06T05:07:45.864Z,60.23
2023-05-06T05:12:48.053Z,59.82
2023-05-06T05:17:51.502Z,61.08
2023-05-06T05:22:53.600Z,63.23
2023-05-06T05:27:55.733Z,62.54
2023-05-06T05:32:58.205Z,61.79
2023-05-06T05:38:00.503Z,62.46
2023-05-06T05:43:02.684Z,61.57
2023-05-06T05:48:05.299Z,60.83
2023-05-06T05:53:07.483Z,60.13
2023-05-06T05:58:11.967Z,59.84
2023-05-06T06:03:14.241Z,59.58
2023-05-06T06:08:19.178Z,59.14
2023-05-06T06:13:22.228Z,58.90
2023-05-06T06:18:24.780Z,58.71
2023-05-06T06:23:27.224Z,58.40
2023-05-06T06:28:29.438Z,57.97
2023-05-06T06:33:31.897Z,57.63
2023-05-06T06:38:34.665Z,57.42
2023-05-06T06:43:38.864Z,57.17
2023-05-06T06:48:40.995Z,56.96
2023-05-06T06:53:43.528Z,56.92
2023-05-06T06:58:45.820Z,55.76
2023-05-06T07:03:48.057Z,55.48
2023-05-06T07:08:50.568Z,54.84
2023-05-06T07:13:52.763Z,54.04
2023-05-06T07:18:55.026Z,52.86
2023-05-06T07:23:57.372Z,51.76
2023-05-06T07:28:59.530Z,50.92
2023-05-06T07:34:01.963Z,50.40
2023-05-06T07:39:04.464Z,50.18
2023-05-06T07:44:07.215Z,50.20
2023-05-06T07:49:09.450Z,49.56
2023-05-06T07:54:11.866Z,48.62
2023-05-06T07:59:15.280Z,47.73
2023-05-06T08:09:22.957Z,46.30
2023-05-06T08:14:29.700Z,45.71
2023-05-06T08:19:32.025Z,43.95
2023-05-06T08:24:34.273Z,43.85
2023-05-06T08:29:36.827Z,43.40
2023-05-06T08:34:38.929Z,43.34
2023-05-06T08:39:42.005Z,43.25
2023-05-06T08:44:45.052Z,43.06
2023-05-06T08:49:47.920Z,42.74
2023-05-06T08:54:54.965Z,42.08
2023-05-06T08:59:57.340Z,42.03
2023-05-06T09:05:00.719Z,42.15
2023-05-06T09:10:15.599Z,41.96
2023-05-06T09:15:17.997Z,42.39
2023-05-06T09:20:20.526Z,42.11
2023-05-06T09:25:22.909Z,42.08
2023-05-06T09:30:25.086Z,42.41
2023-05-06T09:35:36.935Z,43.11
2023-05-06T09:40:39.741Z,43.03
2023-05-06T09:45:42.440Z,42.92
2023-05-06T09:50:44.888Z,43.18
2023-05-06T09:55:47.738Z,42.72
2023-05-06T10:00:52.623Z,41.85
2023-05-06T10:05:57.832Z,41.11
2023-05-06T10:11:02.090Z,40.61
2023-05-06T10:16:07.189Z,40.17
2023-05-06T10:21:17.790Z,40.25
2023-05-06T10:26:22.410Z,38.99
2023-05-06T10:31:53.439Z,37.99
2023-05-06T10:36:58.289Z,37.20
2023-05-06T10:42:00.668Z,36.81
2023-05-06T10:47:02.948Z,36.93
2023-05-06T10:52:14.253Z,35.83
2023-05-06T10:57:16.733Z,34.76
2023-05-06T11:02:20.945Z,34.12
2023-05-06T11:07:24.811Z,34.15
2023-05-06T11:12:47.041Z,33.65
2023-05-06T11:17:49.486Z,33.61
2023-05-06T11:22:52.864Z,32.91
2023-05-06T11:27:56.697Z,33.26
2023-05-06T11:33:05.559Z,32.69
2023-05-06T11:38:08.118Z,32.82
2023-05-06T11:43:14.587Z,32.38
2023-05-06T11:48:18.681Z,31.81
2023-05-06T11:53:23.594Z,31.35
2023-05-06T11:58:28.098Z,30.58
2023-05-06T12:03:32.794Z,30.11
2023-05-06T12:08:37.455Z,29.64
2023-05-06T12:13:41.081Z,29.42
2023-05-06T12:18:45.211Z,29.33
2023-05-06T12:23:52.800Z,29.14
2023-05-06T12:29:12.345Z,27.78
2023-05-06T12:34:16.680Z,28.38
2023-05-06T12:39:18.903Z,28.75
2023-05-06T12:44:35.296Z,28.26
2023-05-06T12:49:51.380Z,27.75
2023-05-06T12:54:53.821Z,27.83
2023-05-06T12:59:56.710Z,27.36
2023-05-06T13:04:58.947Z,26.91
2023-05-06T13:10:01.448Z,26.79
2023-05-06T13:15:05.606Z,26.83
2023-05-06T13:20:08.587Z,26.29
2023-05-06T13:25:11.891Z,26.13
2023-05-06T13:30:14.339Z,25.88
2023-05-06T13:35:16.744Z,25.41
2023-05-06T13:40:19.026Z,25.16
2023-05-06T13:45:21.293Z,24.92
2023-05-06T13:50:23.556Z,24.96
2023-05-06T13:55:25.890Z,25.11
2023-05-06T14:00:28.274Z,26.13
2023-05-06T14:05:30.902Z,26.16
2023-05-06T14:10:33.142Z,25.68
2023-05-06T14:15:35.555Z,25.40
2023-05-06T14:20:37.773Z,24.47
2023-05-06T14:25:40.602Z,23.04
2023-05-06T14:30:43.060Z,23.21
2023-05-06T14:35:46.568Z,22.84
2023-05-06T14:40:48.807Z,22.68
2023-05-06T14:45:51.160Z,23.17
2023-05-06T14:50:53.580Z,22.61
2023-05-06T14:55:56.840Z,22.74
2023-05-06T15:00:59.104Z,22.91
2023-05-06T15:06:01.433Z,23.08
2023-05-06T15:11:04.462Z,23.40
2023-05-06T15:16:10.519Z,22.89
2023-05-06T15:21:13.893Z,23.20
2023-05-06T15:26:16.559Z,23.00
2023-05-06T15:31:19.136Z,23.11
2023-05-06T15:36:21.402Z,23.09
2023-05-06T15:41:27.176Z,23.37
2023-05-06T15:57:23.019Z,25.21
2023-05-06T16:08:43.639Z,26.47
2023-05-06T16:13:46.793Z,26.95
2023-05-06T16:18:49.830Z,26.93
2023-05-06T16:23:52.132Z,27.91
2023-05-06T16:28:54.575Z,28.43
2023-05-06T16:33:56.957Z,28.94
2023-05-06T16:38:59.176Z,29.28
2023-05-06T16:44:02.510Z,29.10
2023-05-06T16:49:05.179Z,29.53
2023-05-06T16:54:07.523Z,29.79
2023-05-06T16:59:09.710Z,30.45
2023-05-06T17:04:12.009Z,30.67
2023-05-06T17:09:14.586Z,30.95
2023-05-06T17:14:17.156Z,31.05
2023-05-06T17:19:19.475Z,31.60
2023-05-06T17:24:22.135Z,31.69
2023-05-06T17:29:24.560Z,32.14
2023-05-06T17:34:27.147Z,32.08
2023-05-06T17:39:29.422Z,32.24
2023-05-06T17:44:32.105Z,31.98
2023-05-06T17:49:34.907Z,32.44
2023-05-06T17:54:38.617Z,32.69
2023-05-06T17:59:40.847Z,32.67
2023-05-06T18:04:44.996Z,33.03
2023-05-06T18:09:52.260Z,34.20
2023-05-06T18:14:55.757Z,34.52
2023-05-06T18:19:58.087Z,34.33
2023-05-06T18:25:00.364Z,34.55
2023-05-06T18:30:03.339Z,34.53
2023-05-06T18:35:05.904Z,34.53
2023-05-06T18:40:11.728Z,34.49
2023-05-06T18:45:13.988Z,34.69
2023-05-06T18:50:16.612Z,34.64
2023-05-06T18:55:18.898Z,34.86
2023-05-06T19:00:24.673Z,35.04
2023-05-06T19:05:27.004Z,35.48
2023-05-06T19:10:29.340Z,35.52
2023-05-06T19:15:32.203Z,36.12
2023-05-06T19:20:34.902Z,36.42
2023-05-06T19:25:39.156Z,36.80
2023-05-06T19:30:41.563Z,37.31
2023-05-06T19:35:43.937Z,37.52
2023-05-06T19:40:46.196Z,38.00
2023-05-06T19:45:48.488Z,38.40
2023-05-06T19:50:52.004Z,38.45
2023-05-06T19:55:56.505Z,38.45
2023-05-06T20:00:58.978Z,38.83
2023-05-06T20:06:01.832Z,39.33
2023-05-06T20:11:04.098Z,39.85
2023-05-06T20:16:07.174Z,40.00
2023-05-06T20:21:09.551Z,40.19
2023-05-06T20:26:11.931Z,40.24
2023-05-06T20:31:14.162Z,40.60
2023-05-06T20:36:17.231Z,41.01
2023-05-06T20:41:19.499Z,41.28
2023-05-06T20:46:22.001Z,41.54
2023-05-06T20:51:24.376Z,41.64
2023-05-06T20:56:27.247Z,41.66
2023-05-06T21:01:29.871Z,41.62
2023-05-06T21:06:33.216Z,42.00
2023-05-06T21:11:35.658Z,42.27
2023-05-06T21:16:40.105Z,42.48
2023-05-06T21:21:42.432Z,42.65
2023-05-06T21:26:44.711Z,42.86
2023-05-06T21:31:46.929Z,42.59
2023-05-06T21:36:49.187Z,43.29
2023-05-06T21:41:51.461Z,43.87
2023-05-06T21:46:53.823Z,44.38
2023-05-06T21:51:56.672Z,44.51
2023-05-06T21:56:58.869Z,44.96
2023-05-06T22:02:01.495Z,44.78
2023-05-06T22:07:04.170Z,45.01
2023-05-06T22:12:09.306Z,45.56
2023-05-06T22:17:12.793Z,46.00
2023-05-06T22:22:15.040Z,46.10
2023-05-06T22:27:17.260Z,45.59
2023-05-06T22:32:21.914Z,46.03
2023-05-06T22:37:30.027Z,45.98
2023-05-06T22:42:32.301Z,45.99
2023-05-06T22:47:34.612Z,46.02
2023-05-06T22:52:37.185Z,46.04
2023-05-06T22:57:39.496Z,45.98
2023-05-06T23:02:41.814Z,46.38
2023-05-06T23:07:44.074Z,46.51
2023-05-06T23:12:47.928Z,47.04
2023-05-06T23:17:50.255Z,47.04
2023-05-06T23:22:55.917Z,46.96
2023-05-06T23:27:58.156Z,47.25
2023-05-06T23:33:00.467Z,47.57
2023-05-06T23:38:02.870Z,47.48
2023-05-06T23:43:07.549Z,47.72
2023-05-06T23:48:09.860Z,47.89
2023-05-06T23:53:12.330Z,48.21
2023-05-06T23:58:14.854Z,48.45
